»·PEaware :: DLH630 EDDF-OMDB

DLH630 :: EDDF-OMDB

FLIGHT INFORMATION

Flight Status: Arrived
Operator:
Lufthansa
More flights by this operator :: More flights under this callsign
Pilot: Anonymous 14085 (14085)
Aircraft: AIRBUS A330
(A330)
More flights by this aircraft type
Origin: EDDF Frankfurt/Main
Germany
Destination: OMDB Dubai Intl
United Arab Emirates
More flights between these airports :: More routes between these airports
Route: RATI6D RATIM L603 AKANU UL603 BESNI UL605 ESEGA VELOM GOTAR KEROP ETIDA/K0878F390 N618 GOL N605 GRN Q27 ARTAT/N0481F390 UP975 EZS UW104 DYB UP975 PEBAD UM688 SIDAD R784 IMDAT B416 DESDI DESD1C
File this flight plan on PilotEdge
Remarks: PBN / A1B1C1D1O1S2 DOF / 170609 REG / N315SB EET / EDUU0007 LOVV0028 LHCC0045 LYBA0103 LBSR0126 LTBB0206 LTAA0214 OSTT0320 ORBB0325 OKAC0428 OIIX0436 OMAE0513 OPR / DLH RMK / TCAS SIMBRIEF
Altitude:
(Current/Filed)
39,000ft
Speed:
(Current/Filed)
477kts
Departed: 09-Jun-17 02:48 PM
Arrived: 09-Jun-17 08:46 PM
Distance/Time
Traveled:
2614nm/5:58
Distance/Time
To Go:
Arrived

Flight Plot

Page will automatically refresh every two minutes.

Flight plan parsing failed; only flown route is shown


Map Options




Map Legend


Flown Route
Filed Route
Departure Airport
Arrival Airport
Navaid (VOR, NDB)
Fix

Horizontal Profiles

Position Reports

Time Latitude Longitude Heading Altitude Ground
Speed
09-Jun-17 14:36 50.045157 8.564568 212 369ft 2kts
09-Jun-17 14:37 50.044542 8.561327 262 366ft 13kts
09-Jun-17 14:38 50.044316 8.560563 215 366ft 0kts
09-Jun-17 14:39 50.044298 8.560544 215 366ft 0kts
09-Jun-17 14:40 50.042251 8.560465 177 360ft 15kts
09-Jun-17 14:41 50.039665 8.556089 250 353ft 19kts
09-Jun-17 14:42 50.038567 8.551463 250 351ft 6kts
09-Jun-17 14:43 50.037115 8.545310 250 341ft 11kts
09-Jun-17 14:44 50.035696 8.539503 250 344ft 14kts
09-Jun-17 14:45 50.034299 8.534486 194 343ft 12kts
09-Jun-17 14:46 50.032780 8.535360 70 339ft 5kts
09-Jun-17 14:47 50.032786 8.535387 70 339ft 0kts
09-Jun-17 14:48 50.032786 8.535387 70 339ft 0kts
09-Jun-17 14:49 50.032786 8.535387 70 339ft 0kts
09-Jun-17 14:50 50.036359 8.550327 69 344ft 125kts
09-Jun-17 14:51 50.052046 8.619619 71 1945ft 209kts
09-Jun-17 14:52 50.045069 8.718984 151 4864ft 276kts
09-Jun-17 14:53 49.974939 8.736029 194 7891ft 272kts
09-Jun-17 14:54 49.899969 8.711396 197 10440ft 290kts
09-Jun-17 14:55 49.825463 8.763951 110 11417ft 388kts
09-Jun-17 14:56 49.793908 8.931056 107 13730ft 415kts
09-Jun-17 14:57 49.760131 9.102894 104 16174ft 432kts
09-Jun-17 14:58 49.730995 9.284805 103 18390ft 450kts
09-Jun-17 14:59 49.699914 9.474385 105 20311ft 471kts
09-Jun-17 15:00 49.626826 9.643509 130 22110ft 488kts
09-Jun-17 15:01 49.541950 9.806560 131 23760ft 505kts
09-Jun-17 15:02 49.452728 9.976007 131 25270ft 521kts
09-Jun-17 15:03 49.361105 10.148881 130 26649ft 537kts
09-Jun-17 15:04 49.265946 10.327273 130 27955ft 552kts
09-Jun-17 15:05 49.160687 10.495179 136 29527ft 555kts
09-Jun-17 15:06 49.053559 10.654060 137 31179ft 554kts
09-Jun-17 15:07 48.945080 10.813578 137 32735ft 550kts
09-Jun-17 15:08 48.839751 10.967533 136 34040ft 547kts
09-Jun-17 15:09 48.733282 11.122316 137 35516ft 536kts
09-Jun-17 15:10 48.639099 11.288408 109 36722ft 525kts
09-Jun-17 15:11 48.592441 11.493874 105 37605ft 521kts
09-Jun-17 15:12 48.555589 11.697375 100 38383ft 516kts
09-Jun-17 15:13 48.524378 11.905475 100 39020ft 513kts
09-Jun-17 15:14 48.493975 12.111584 100 39166ft 511kts
09-Jun-17 15:15 48.462911 12.319807 100 39155ft 509kts
09-Jun-17 15:16 48.431682 12.526073 100 39159ft 511kts
09-Jun-17 15:17 48.400164 12.729574 103 39159ft 510kts
09-Jun-17 15:18 48.355125 12.930565 108 39129ft 510kts
09-Jun-17 15:19 48.308480 13.130105 108 39132ft 509kts
09-Jun-17 15:20 48.261701 13.328603 108 39100ft 509kts
09-Jun-17 15:21 48.210322 13.522358 122 39115ft 495kts
09-Jun-17 15:22 48.140608 13.687324 124 39104ft 472kts
09-Jun-17 15:23 48.069023 13.853589 124 39102ft 475kts
09-Jun-17 15:24 47.997973 14.017425 124 39105ft 474kts
09-Jun-17 15:25 47.926296 14.181692 124 39104ft 474kts
09-Jun-17 15:26 47.855159 14.343472 124 39104ft 474kts
09-Jun-17 15:27 47.783301 14.506169 124 39104ft 474kts
09-Jun-17 15:28 47.711743 14.667277 125 39103ft 474kts
09-Jun-17 15:29 47.639385 14.829348 125 39104ft 474kts
09-Jun-17 15:30 47.566703 14.991052 125 39104ft 474kts
09-Jun-17 15:31 47.494115 15.151598 125 39104ft 474kts
09-Jun-17 15:32 47.420953 15.312468 125 39103ft 474kts
09-Jun-17 15:33 47.347400 15.473259 125 39076ft 474kts
09-Jun-17 15:34 47.273888 15.633019 125 39076ft 474kts
09-Jun-17 15:35 47.200739 15.791215 126 39077ft 474kts
09-Jun-17 15:36 47.126841 15.949987 126 39077ft 474kts
09-Jun-17 15:37 47.052807 16.108134 126 39077ft 474kts
09-Jun-17 15:38 46.988339 16.273670 108 39085ft 478kts
09-Jun-17 15:39 46.947444 16.457584 108 39080ft 477kts
09-Jun-17 15:40 46.907061 16.641584 108 39075ft 478kts
09-Jun-17 15:41 46.866953 16.822465 109 39077ft 479kts
09-Jun-17 15:42 46.825888 17.006482 109 39077ft 478kts
09-Jun-17 15:43 46.784671 17.189621 109 39077ft 478kts
09-Jun-17 15:44 46.743130 17.372619 109 39077ft 478kts
09-Jun-17 15:45 46.701211 17.555717 109 39077ft 478kts
09-Jun-17 15:46 46.659332 17.737238 110 39077ft 478kts
09-Jun-17 15:47 46.616939 17.919322 110 39077ft 478kts
09-Jun-17 15:48 46.574172 18.101474 110 39077ft 478kts
09-Jun-17 15:49 46.531184 18.283053 110 39077ft 478kts
09-Jun-17 15:50 46.487822 18.464706 110 39077ft 478kts
09-Jun-17 15:51 46.444503 18.644701 110 39077ft 478kts
09-Jun-17 15:52 46.400837 18.824819 110 39077ft 478kts
09-Jun-17 15:53 46.356681 19.005358 110 39077ft 478kts
09-Jun-17 15:54 46.312205 19.185751 110 39077ft 478kts
09-Jun-17 15:55 46.267457 19.365802 110 39077ft 478kts
09-Jun-17 15:56 46.222436 19.545522 110 39077ft 478kts
09-Jun-17 15:57 46.164719 19.711438 138 39084ft 470kts
09-Jun-17 15:58 46.065467 19.832968 143 39079ft 469kts
09-Jun-17 15:59 45.963809 19.949555 143 39076ft 469kts
09-Jun-17 16:00 45.862940 20.064286 143 39076ft 469kts
09-Jun-17 16:01 45.760751 20.179998 143 39077ft 469kts
09-Jun-17 16:02 45.658813 20.294924 143 39077ft 469kts
09-Jun-17 16:03 45.556944 20.409234 143 39077ft 469kts
09-Jun-17 16:04 45.454695 20.523416 143 39077ft 469kts
09-Jun-17 16:05 45.352417 20.637098 143 39077ft 469kts
09-Jun-17 16:06 45.250952 20.749482 144 39077ft 469kts
09-Jun-17 16:07 45.148510 20.862292 144 39077ft 468kts
09-Jun-17 16:08 45.045694 20.974975 144 39077ft 469kts
09-Jun-17 16:09 44.943227 21.086756 144 39077ft 468kts
09-Jun-17 16:10 44.841488 21.197102 144 39077ft 468kts
09-Jun-17 16:11 44.738477 21.308425 144 39077ft 468kts
09-Jun-17 16:12 44.635422 21.419302 144 39077ft 468kts
09-Jun-17 16:13 44.532128 21.529928 144 39077ft 468kts
09-Jun-17 16:14 44.428846 21.640037 144 39078ft 468kts
09-Jun-17 16:15 44.326888 21.748378 145 39076ft 468kts
09-Jun-17 16:16 44.223533 21.857581 145 39076ft 468kts
09-Jun-17 16:17 44.119856 21.966620 145 39100ft 469kts
09-Jun-17 16:18 44.017152 22.074157 145 39106ft 468kts
09-Jun-17 16:19 43.913450 22.182253 145 39104ft 468kts
09-Jun-17 16:20 43.810003 22.289471 145 39103ft 468kts
09-Jun-17 16:21 43.706739 22.396928 140 39099ft 469kts
09-Jun-17 16:22 43.642837 22.554207 115 39103ft 477kts
09-Jun-17 16:23 43.589488 22.720221 115 39103ft 476kts
09-Jun-17 16:24 43.536104 22.886301 115 39104ft 476kts
09-Jun-17 16:25 43.482303 23.052645 115 39104ft 476kts
09-Jun-17 16:26 43.428430 23.218172 115 39103ft 476kts
09-Jun-17 16:27 43.374347 23.383317 115 39124ft 476kts
09-Jun-17 16:28 43.319356 23.549900 114 39134ft 487kts
09-Jun-17 16:29 43.263310 23.719359 115 39130ft 489kts
09-Jun-17 16:30 43.206733 23.888921 115 39129ft 491kts
09-Jun-17 16:31 43.149830 24.058393 115 39132ft 491kts
09-Jun-17 16:32 43.099949 24.230037 93 39139ft 490kts
09-Jun-17 16:33 43.103934 24.414736 85 39128ft 491kts
09-Jun-17 16:34 43.111805 24.600408 85 39105ft 492kts
09-Jun-17 16:35 43.119597 24.786981 85 39099ft 494kts
09-Jun-17 16:36 43.126949 24.972068 85 39104ft 492kts
09-Jun-17 16:37 43.133953 25.157854 85 39105ft 491kts
09-Jun-17 16:38 43.140754 25.344807 85 39104ft 492kts
09-Jun-17 16:39 43.147139 25.530221 85 39105ft 492kts
09-Jun-17 16:40 43.149917 25.715283 100 39103ft 492kts
09-Jun-17 16:41 43.116092 25.897550 105 39101ft 493kts
09-Jun-17 16:42 43.079916 26.078117 105 39106ft 494kts
09-Jun-17 16:43 43.043249 26.258788 105 39113ft 497kts
09-Jun-17 16:44 43.006489 26.438868 105 39104ft 494kts
09-Jun-17 16:45 42.969284 26.619295 105 39098ft 494kts
09-Jun-17 16:46 42.931927 26.798942 106 39021ft 495kts
09-Jun-17 16:47 42.894186 26.978660 106 39023ft 495kts
09-Jun-17 16:48 42.856316 27.157013 105 39023ft 495kts
09-Jun-17 16:49 42.817932 27.336731 105 38998ft 495kts
09-Jun-17 16:50 42.779267 27.516294 105 39021ft 496kts
09-Jun-17 16:51 42.740324 27.695754 106 39017ft 497kts
09-Jun-17 16:52 42.701069 27.874964 106 39024ft 496kts
09-Jun-17 16:53 42.661640 28.053474 106 38989ft 496kts
09-Jun-17 16:54 42.625731 28.233061 103 38995ft 496kts
09-Jun-17 16:55 42.592641 28.414382 103 39029ft 495kts
09-Jun-17 16:56 42.559310 28.595477 103 39020ft 496kts
09-Jun-17 16:57 42.525751 28.775966 104 39022ft 497kts
09-Jun-17 16:58 42.491808 28.957126 103 38998ft 495kts
09-Jun-17 16:59 42.457609 29.137724 103 38997ft 496kts
09-Jun-17 17:00 42.423206 29.317706 103 38995ft 496kts
09-Jun-17 17:01 42.388386 29.498192 103 39026ft 496kts
09-Jun-17 17:02 42.350606 29.675884 108 39023ft 496kts
09-Jun-17 17:03 42.306743 29.849736 109 39022ft 496kts
09-Jun-17 17:04 42.261812 30.025540 109 39023ft 496kts
09-Jun-17 17:05 42.216509 30.201477 109 39024ft 496kts
09-Jun-17 17:06 42.171200 30.376152 109 39023ft 496kts
09-Jun-17 17:07 42.125451 30.551247 109 39024ft 496kts
09-Jun-17 17:08 42.079571 30.725701 109 39023ft 496kts
09-Jun-17 17:09 42.033354 30.900051 109 39023ft 496kts
09-Jun-17 17:10 41.987102 31.073423 109 39023ft 496kts
09-Jun-17 17:11 41.940301 31.247947 109 39023ft 496kts
09-Jun-17 17:12 41.893982 31.419460 109 39023ft 496kts
09-Jun-17 17:13 41.846629 31.593074 109 39024ft 496kts
09-Jun-17 17:14 41.800239 31.762290 110 39022ft 496kts
09-Jun-17 17:15 41.760351 31.906614 110 39023ft 496kts
09-Jun-17 17:16 41.704467 32.107410 110 38968ft 495kts
09-Jun-17 17:17 41.656675 32.278452 110 38971ft 496kts
09-Jun-17 17:18 41.608716 32.448782 110 38969ft 496kts
09-Jun-17 17:19 41.568380 32.591031 110 38970ft 496kts
09-Jun-17 17:20 41.511286 32.791270 111 38968ft 496kts
09-Jun-17 17:21 41.462295 32.961744 111 38969ft 496kts
09-Jun-17 17:22 41.398840 33.124123 119 38969ft 495kts
09-Jun-17 17:23 41.332375 33.285565 119 38970ft 511kts
09-Jun-17 17:24 41.277093 33.423469 119 38969ft 508kts
09-Jun-17 17:25 41.211272 33.589862 119 38970ft 510kts
09-Jun-17 17:26 41.145401 33.755573 120 38966ft 509kts
09-Jun-17 17:27 41.079170 33.921050 120 38886ft 508kts
09-Jun-17 17:28 41.012680 34.086288 120 38888ft 510kts
09-Jun-17 17:29 40.946056 34.250945 120 38889ft 510kts
09-Jun-17 17:30 40.880082 34.412938 120 38888ft 510kts
09-Jun-17 17:31 40.812827 34.577229 120 38888ft 510kts
09-Jun-17 17:32 40.745794 34.740189 121 38886ft 509kts
09-Jun-17 17:33 40.676989 34.900343 122 38888ft 509kts
09-Jun-17 17:34 40.606952 35.062471 122 38887ft 509kts
09-Jun-17 17:35 40.536856 35.223837 122 38889ft 510kts
09-Jun-17 17:36 40.466436 35.385114 122 38889ft 510kts
09-Jun-17 17:37 40.395861 35.545897 122 38888ft 509kts
09-Jun-17 17:38 40.325668 35.705095 123 38888ft 509kts
09-Jun-17 17:39 40.254477 35.865653 123 38888ft 509kts
09-Jun-17 17:40 40.183531 36.024730 123 38871ft 510kts
09-Jun-17 17:41 40.111928 36.184499 123 38861ft 510kts
09-Jun-17 17:42 40.040270 36.343607 123 38861ft 509kts
09-Jun-17 17:43 39.968494 36.502095 123 38959ft 508kts
09-Jun-17 17:44 39.896858 36.659498 124 39022ft 509kts
09-Jun-17 17:45 39.824780 36.816961 124 39023ft 509kts
09-Jun-17 17:46 39.753594 36.974019 123 39023ft 509kts
09-Jun-17 17:47 39.682310 37.132659 123 39023ft 509kts
09-Jun-17 17:48 39.611931 37.288567 123 39023ft 507kts
09-Jun-17 17:49 39.540731 37.445450 123 39023ft 508kts
09-Jun-17 17:50 39.468921 37.602991 124 39024ft 508kts
09-Jun-17 17:51 39.397827 37.757945 124 39022ft 508kts
09-Jun-17 17:52 39.325796 37.913978 124 39022ft 508kts
09-Jun-17 17:53 39.253376 38.070056 124 38917ft 509kts
09-Jun-17 17:54 39.180625 38.226123 124 38888ft 508kts
09-Jun-17 17:55 39.107954 38.381203 124 38889ft 508kts
09-Jun-17 17:56 39.034863 38.536438 124 38916ft 508kts
09-Jun-17 17:57 38.962119 38.690269 125 38913ft 507kts
09-Jun-17 17:58 38.889482 38.843110 125 38914ft 507kts
09-Jun-17 17:59 38.816352 38.996559 125 38914ft 508kts
09-Jun-17 18:00 38.742656 39.151661 123 38916ft 516kts
09-Jun-17 18:01 38.653090 39.288778 139 38921ft 507kts
09-Jun-17 18:02 38.550051 39.411424 140 38916ft 505kts
09-Jun-17 18:03 38.449004 39.531812 140 38916ft 507kts
09-Jun-17 18:04 38.347044 39.652997 141 38916ft 506kts
09-Jun-17 18:05 38.244457 39.774238 141 38914ft 506kts
09-Jun-17 18:06 38.141669 39.895108 141 38829ft 505kts
09-Jun-17 18:07 38.038315 40.016138 141 38834ft 506kts
09-Jun-17 18:08 37.934937 40.136660 141 38833ft 506kts
09-Jun-17 18:09 37.834023 40.259156 137 38834ft 508kts
09-Jun-17 18:10 37.735485 40.386396 137 38834ft 508kts
09-Jun-17 18:11 37.636690 40.513491 137 38834ft 508kts
09-Jun-17 18:12 37.538027 40.639909 137 38836ft 508kts
09-Jun-17 18:13 37.439523 40.765781 138 38833ft 508kts
09-Jun-17 18:14 37.340425 40.891651 138 38833ft 508kts
09-Jun-17 18:15 37.241634 41.016822 138 38834ft 508kts
09-Jun-17 18:16 37.142465 41.141970 138 38834ft 508kts
09-Jun-17 18:17 37.039142 41.259540 148 38834ft 502kts
09-Jun-17 18:18 36.926275 41.361622 148 38836ft 502kts
09-Jun-17 18:19 36.814656 41.461551 148 38835ft 502kts
09-Jun-17 18:20 36.702147 41.562754 151 38839ft 494kts
09-Jun-17 18:21 36.595352 41.656992 153 38835ft 483kts
09-Jun-17 18:22 36.489115 41.758495 150 38839ft 487kts
09-Jun-17 18:23 36.383174 41.862114 150 38833ft 485kts
09-Jun-17 18:24 36.277534 41.964978 150 38834ft 485kts
09-Jun-17 18:25 36.171318 42.068037 150 38833ft 486kts
09-Jun-17 18:26 36.065180 42.170661 150 38833ft 486kts
09-Jun-17 18:27 35.959153 42.272821 150 38834ft 485kts
09-Jun-17 18:28 35.852983 42.374671 150 38835ft 486kts
09-Jun-17 18:29 35.746754 42.476286 150 38835ft 485kts
09-Jun-17 18:30 35.640469 42.577628 150 38836ft 485kts
09-Jun-17 18:31 35.534260 42.678627 150 38831ft 484kts
09-Jun-17 18:32 35.427568 42.779721 150 38832ft 485kts
09-Jun-17 18:33 35.321322 42.879986 150 38833ft 485kts
09-Jun-17 18:34 35.216654 42.978408 150 38833ft 485kts
09-Jun-17 18:35 35.109793 43.078541 150 38833ft 485kts
09-Jun-17 18:36 35.002860 43.178405 150 38833ft 485kts
09-Jun-17 18:37 34.896324 43.277563 150 38834ft 485kts
09-Jun-17 18:38 34.789693 43.376373 150 38834ft 485kts
09-Jun-17 18:39 34.682293 43.475664 150 38835ft 485kts
09-Jun-17 18:40 34.575533 43.574034 150 38795ft 486kts
09-Jun-17 18:41 34.469340 43.671658 151 38719ft 484kts
09-Jun-17 18:42 34.362274 43.769922 151 38724ft 484kts
09-Jun-17 18:43 34.255136 43.867822 151 38725ft 484kts
09-Jun-17 18:44 34.151154 43.970533 147 38726ft 489kts
09-Jun-17 18:45 34.049041 44.077987 146 38725ft 489kts
09-Jun-17 18:46 33.946776 44.185521 146 38726ft 489kts
09-Jun-17 18:47 33.844495 44.292616 146 38727ft 489kts
09-Jun-17 18:48 33.741973 44.399699 146 38727ft 489kts
09-Jun-17 18:49 33.640095 44.505768 146 38726ft 491kts
09-Jun-17 18:50 33.537516 44.612239 146 38727ft 490kts
09-Jun-17 18:51 33.435625 44.719246 146 38724ft 489kts
09-Jun-17 18:52 33.333849 44.825886 144 38719ft 491kts
09-Jun-17 18:53 33.231573 44.933681 142 38728ft 489kts
09-Jun-17 18:54 33.129195 45.041267 142 38725ft 490kts
09-Jun-17 18:55 33.027149 45.148078 142 38726ft 491kts
09-Jun-17 18:56 32.924825 45.254844 142 38725ft 490kts
09-Jun-17 18:57 32.822576 45.361263 140 38726ft 492kts
09-Jun-17 18:58 32.722776 45.471695 140 38905ft 492kts
09-Jun-17 18:59 32.623088 45.581674 140 39052ft 492kts
09-Jun-17 19:00 32.523608 45.691796 140 39050ft 492kts
09-Jun-17 19:01 32.423877 45.801761 140 39048ft 492kts
09-Jun-17 19:02 32.323946 45.911394 140 39049ft 492kts
09-Jun-17 19:03 32.223887 46.020622 140 39051ft 491kts
09-Jun-17 19:04 32.124104 46.129203 140 39049ft 491kts
09-Jun-17 19:05 32.023763 46.238052 140 39050ft 491kts
09-Jun-17 19:06 31.923546 46.346429 140 39051ft 491kts
09-Jun-17 19:07 31.823419 46.454241 140 39051ft 491kts
09-Jun-17 19:08 31.722943 46.562217 140 39050ft 490kts
09-Jun-17 19:09 31.622692 46.669666 140 38865ft 490kts
09-Jun-17 19:10 31.522673 46.776608 140 38618ft 489kts
09-Jun-17 19:11 31.422130 46.883691 140 38615ft 490kts
09-Jun-17 19:12 31.322359 46.989757 140 38640ft 490kts
09-Jun-17 19:13 31.222103 47.096237 140 38622ft 488kts
09-Jun-17 19:14 31.121916 47.202326 140 38640ft 489kts
09-Jun-17 19:15 31.022650 47.307215 141 38641ft 474kts
09-Jun-17 19:16 30.923752 47.411192 141 38646ft 479kts
09-Jun-17 19:17 30.827213 47.512414 141 38646ft 480kts
09-Jun-17 19:18 30.728219 47.615896 141 38645ft 479kts
09-Jun-17 19:19 30.630389 47.718007 141 38644ft 478kts
09-Jun-17 19:20 30.531636 47.820660 141 38643ft 479kts
09-Jun-17 19:21 30.432555 47.923345 141 38644ft 479kts
09-Jun-17 19:22 30.333307 48.025981 141 38643ft 479kts
09-Jun-17 19:23 30.234430 48.127822 141 38645ft 478kts
09-Jun-17 19:24 30.135248 48.229748 141 38645ft 478kts
09-Jun-17 19:25 30.035888 48.331572 141 38643ft 479kts
09-Jun-17 19:26 29.936595 48.433046 141 38645ft 478kts
09-Jun-17 19:27 29.842022 48.539839 134 38643ft 481kts
09-Jun-17 19:28 29.754058 48.654876 134 38644ft 481kts
09-Jun-17 19:29 29.666236 48.770151 134 38646ft 481kts
09-Jun-17 19:30 29.578128 48.885380 133 38647ft 480kts
09-Jun-17 19:31 29.489936 49.000282 134 38643ft 480kts
09-Jun-17 19:32 29.402698 49.114566 133 38644ft 481kts
09-Jun-17 19:33 29.314798 49.229723 133 38636ft 482kts
09-Jun-17 19:34 29.227610 49.343626 133 38652ft 481kts
09-Jun-17 19:35 29.139596 49.458271 133 38654ft 480kts
09-Jun-17 19:36 29.051109 49.570792 135 38638ft 480kts
09-Jun-17 19:37 28.960665 49.681243 135 38646ft 479kts
09-Jun-17 19:38 28.870014 49.791489 135 38642ft 479kts
09-Jun-17 19:39 28.779014 49.901813 135 38643ft 479kts
09-Jun-17 19:40 28.687939 50.011992 135 38646ft 478kts
09-Jun-17 19:41 28.596697 50.122076 135 38645ft 478kts
09-Jun-17 19:42 28.505634 50.230283 136 38643ft 478kts
09-Jun-17 19:43 28.413346 50.338387 136 38645ft 478kts
09-Jun-17 19:44 28.320880 50.446379 136 38646ft 477kts
09-Jun-17 19:45 28.228581 50.553942 136 38642ft 477kts
09-Jun-17 19:46 28.136367 50.661030 136 38647ft 476kts
09-Jun-17 19:47 28.044025 50.768151 136 38645ft 477kts
09-Jun-17 19:48 27.951541 50.875035 136 38642ft 477kts
09-Jun-17 19:49 27.859483 50.981026 136 38645ft 476kts
09-Jun-17 19:50 27.767032 51.087283 136 38646ft 476kts
09-Jun-17 19:51 27.677323 51.195689 124 38648ft 478kts
09-Jun-17 19:52 27.605808 51.321540 123 38642ft 478kts
09-Jun-17 19:53 27.534778 51.447773 123 38647ft 479kts
09-Jun-17 19:54 27.463571 51.573990 123 38643ft 478kts
09-Jun-17 19:55 27.393805 51.697409 123 38648ft 477kts
09-Jun-17 19:56 27.322401 51.823297 123 38675ft 477kts
09-Jun-17 19:57 27.251079 51.948646 123 38675ft 477kts
09-Jun-17 19:58 27.180364 52.072506 123 38670ft 477kts
09-Jun-17 19:59 27.108762 52.197391 123 38667ft 476kts
09-Jun-17 20:00 27.037627 52.320864 123 38675ft 475kts
09-Jun-17 20:01 26.965864 52.444871 123 38672ft 475kts
09-Jun-17 20:02 26.894076 52.568560 123 38670ft 475kts
09-Jun-17 20:03 26.822039 52.692206 124 38672ft 474kts
09-Jun-17 20:04 26.750432 52.814961 124 38671ft 474kts
09-Jun-17 20:05 26.679060 52.937412 123 38670ft 474kts
09-Jun-17 20:06 26.607333 53.060861 123 38672ft 473kts
09-Jun-17 20:07 26.536100 53.182673 124 38679ft 474kts
09-Jun-17 20:08 26.463934 53.304943 124 38671ft 472kts
09-Jun-17 20:09 26.397220 53.417671 123 38672ft 472kts
09-Jun-17 20:10 26.397220 53.417671 123 38672ft 472kts
09-Jun-17 20:11 26.397220 53.417671 123 38672ft 472kts
09-Jun-17 20:12 26.397220 53.417671 123 38672ft 472kts
09-Jun-17 20:13 26.397220 53.417671 123 38672ft 472kts
09-Jun-17 20:14 26.397220 53.417671 123 38672ft 472kts
09-Jun-17 20:15 26.397220 53.417671 123 38672ft 472kts
09-Jun-17 20:16 26.397220 53.417671 123 38672ft 472kts
09-Jun-17 20:17 26.397220 53.417671 123 38672ft 472kts
09-Jun-17 20:18 26.397220 53.417671 123 38672ft 472kts
09-Jun-17 20:19 26.397220 53.417671 123 38672ft 472kts
09-Jun-17 20:20 26.397220 53.417671 123 38672ft 472kts
09-Jun-17 20:21 26.397220 53.417671 123 38672ft 472kts
09-Jun-17 20:22 26.397220 53.417671 123 38672ft 472kts
09-Jun-17 20:23 26.397220 53.417671 123 38672ft 472kts
09-Jun-17 20:24 26.397220 53.417671 123 38672ft 472kts
09-Jun-17 20:25 26.397220 53.417671 123 38672ft 472kts
09-Jun-17 20:26 26.347717 53.501136 123 38710ft 472kts
09-Jun-17 20:27 26.275365 53.622852 123 38520ft 473kts
09-Jun-17 20:28 26.217904 53.719417 124 36996ft 472kts
09-Jun-17 20:29 26.128134 53.837897 141 34925ft 466kts
09-Jun-17 20:30 26.084257 53.964918 112 32299ft 481kts
09-Jun-17 20:31 26.034207 54.077612 115 29956ft 493kts
09-Jun-17 20:32 25.955292 54.229367 121 28049ft 473kts
09-Jun-17 20:33 25.902471 54.332224 121 27177ft 448kts
09-Jun-17 20:34 25.839649 54.447018 121 25641ft 432kts
09-Jun-17 20:35 25.772602 54.556897 121 23520ft 433kts
09-Jun-17 20:36 25.705114 54.666126 122 21534ft 432kts
09-Jun-17 20:37 25.639460 54.773185 121 19442ft 400kts
09-Jun-17 20:38 25.580450 54.870084 122 17328ft 363kts
09-Jun-17 20:39 25.527986 54.960054 121 15254ft 336kts
09-Jun-17 20:40 25.466112 55.026829 168 13196ft 317kts
09-Jun-17 20:41 25.419517 55.095047 90 11279ft 306kts
09-Jun-17 20:42 25.379956 55.161716 159 8915ft 283kts
09-Jun-17 20:43 25.329742 55.222163 110 6773ft 268kts
09-Jun-17 20:44 25.291611 55.289828 137 4158ft 257kts
09-Jun-17 20:45 25.250439 55.283809 296 3869ft 158kts
09-Jun-17 20:46 25.278234 55.309245 96 2147ft 190kts
09-Jun-17 20:47 25.255156 55.361584 123 98ft 182kts
09-Jun-17 20:48 25.237463 55.390937 155 62ft 30kts
09-Jun-17 20:49 25.238784 55.387201 304 44ft 17kts
09-Jun-17 20:50 25.241585 55.382213 301 41ft 24kts
09-Jun-17 20:51 25.244183 55.377550 301 45ft 10kts
09-Jun-17 20:52 25.244603 55.373325 211 55ft 3kts
09-Jun-17 20:53 25.244314 55.373139 210 55ft 0kts
09-Jun-17 20:54 25.244314 55.373139 210 55ft 0kts
09-Jun-17 20:55 25.244314 55.373139 210 55ft 0kts
09-Jun-17 20:56 25.244314 55.373139 210 55ft 0kts
09-Jun-17 20:57 25.244314 55.373139 210 55ft 0kts
09-Jun-17 20:58 25.244314 55.373139 210 55ft 0kts
09-Jun-17 20:59 25.244314 55.373139 210 55ft 0kts
09-Jun-17 21:00 25.244314 55.373139 210 55ft 0kts
09-Jun-17 21:01 25.244314 55.373139 210 55ft 0kts
09-Jun-17 21:02 25.244314 55.373139 210 55ft 0kts

Navigation Log

Ident Type
Flight plan parsing failed, navigation log unavailable